sensor_id;sensor_type;location;lat;lon;timestamp;temperature;humidity
52555;DHT22;38455;52.710;6.502;2023-03-23T00:01:13;11.50;99.90
52555;DHT22;38455;52.710;6.502;2023-03-23T00:03:40;11.50;99.90
52555;DHT22;38455;52.710;6.502;2023-03-23T00:06:08;11.50;99.90
52555;DHT22;38455;52.710;6.502;2023-03-23T00:08:36;11.50;99.90
52555;DHT22;38455;52.710;6.502;2023-03-23T00:11:04;11.60;99.90
52555;DHT22;38455;52.710;6.502;2023-03-23T00:13:30;11.70;99.90
52555;DHT22;38455;52.710;6.502;2023-03-23T00:15:56;11.60;99.90
52555;DHT22;38455;52.710;6.502;2023-03-23T00:18:23;11.60;99.90
52555;DHT22;38455;52.710;6.502;2023-03-23T00:20:54;11.70;99.90
52555;DHT22;38455;52.710;6.502;2023-03-23T00:23:23;11.70;99.90
52555;DHT22;38455;52.710;6.502;2023-03-23T00:25:54;11.70;99.90
52555;DHT22;38455;52.710;6.502;2023-03-23T00:28:25;11.70;99.90
52555;DHT22;38455;52.710;6.502;2023-03-23T00:31:03;11.60;99.90
52555;DHT22;38455;52.710;6.502;2023-03-23T00:33:34;11.60;99.90
52555;DHT22;38455;52.710;6.502;2023-03-23T00:36:04;11.60;99.90
52555;DHT22;38455;52.710;6.502;2023-03-23T00:38:31;11.60;99.90
52555;DHT22;38455;52.710;6.502;2023-03-23T00:40:57;11.60;99.90
52555;DHT22;38455;52.710;6.502;2023-03-23T00:43:24;11.60;99.90
52555;DHT22;38455;52.710;6.502;2023-03-23T00:45:55;11.60;99.90
52555;DHT22;38455;52.710;6.502;2023-03-23T00:48:22;11.60;99.90
52555;DHT22;38455;52.710;6.502;2023-03-23T00:50:48;11.60;99.90
52555;DHT22;38455;52.710;6.502;2023-03-23T00:53:14;11.70;99.90
52555;DHT22;38455;52.710;6.502;2023-03-23T00:55:44;11.70;99.90
52555;DHT22;38455;52.710;6.502;2023-03-23T00:58:11;11.70;99.90
52555;DHT22;38455;52.710;6.502;2023-03-23T01:00:38;11.70;99.90
52555;DHT22;38455;52.710;6.502;2023-03-23T01:03:04;11.70;99.90
52555;DHT22;38455;52.710;6.502;2023-03-23T01:05:34;11.70;99.90
52555;DHT22;38455;52.710;6.502;2023-03-23T01:08:01;11.70;99.90
52555;DHT22;38455;52.710;6.502;2023-03-23T01:10:27;11.70;99.90
52555;DHT22;38455;52.710;6.502;2023-03-23T01:12:53;11.80;99.90
52555;DHT22;38455;52.710;6.502;2023-03-23T01:15:20;11.70;99.90
52555;DHT22;38455;52.710;6.502;2023-03-23T01:17:46;11.70;99.90
52555;DHT22;38455;52.710;6.502;2023-03-23T01:20:14;11.70;99.90
52555;DHT22;38455;52.710;6.502;2023-03-23T01:22:41;11.70;99.90
52555;DHT22;38455;52.710;6.502;2023-03-23T01:25:08;11.70;99.90
52555;DHT22;38455;52.710;6.502;2023-03-23T01:27:34;11.70;99.90
52555;DHT22;38455;52.710;6.502;2023-03-23T01:30:00;11.70;99.90
52555;DHT22;38455;52.710;6.502;2023-03-23T01:32:26;11.60;99.90
52555;DHT22;38455;52.710;6.502;2023-03-23T01:34:52;11.60;99.90
52555;DHT22;38455;52.710;6.502;2023-03-23T01:37:18;11.60;99.90
52555;DHT22;38455;52.710;6.502;2023-03-23T01:39:45;11.70;99.90
52555;DHT22;38455;52.710;6.502;2023-03-23T01:42:11;11.70;99.90
52555;DHT22;38455;52.710;6.502;2023-03-23T01:47:02;11.70;99.90
52555;DHT22;38455;52.710;6.502;2023-03-23T01:49:33;11.70;99.90
52555;DHT22;38455;52.710;6.502;2023-03-23T01:52:09;11.70;99.90
52555;DHT22;38455;52.710;6.502;2023-03-23T01:54:39;11.70;99.90
52555;DHT22;38455;52.710;6.502;2023-03-23T01:57:09;11.70;99.90
52555;DHT22;38455;52.710;6.502;2023-03-23T01:59:36;11.80;99.90
52555;DHT22;38455;52.710;6.502;2023-03-23T02:02:02;11.70;99.90
52555;DHT22;38455;52.710;6.502;2023-03-23T02:04:28;11.70;99.90
52555;DHT22;38455;52.710;6.502;2023-03-23T02:06:56;11.70;99.90
52555;DHT22;38455;52.710;6.502;2023-03-23T02:09:26;11.70;99.90
52555;DHT22;38455;52.710;6.502;2023-03-23T02:11:53;11.70;99.90
52555;DHT22;38455;52.710;6.502;2023-03-23T02:14:20;11.70;99.90
52555;DHT22;38455;52.710;6.502;2023-03-23T02:19:46;11.70;99.90
52555;DHT22;38455;52.710;6.502;2023-03-23T02:38:40;11.60;99.90
52555;DHT22;38455;52.710;6.502;2023-03-23T02:41:10;11.60;99.90
52555;DHT22;38455;52.710;6.502;2023-03-23T02:43:40;11.60;99.90
52555;DHT22;38455;52.710;6.502;2023-03-23T02:46:08;11.60;99.90
52555;DHT22;38455;52.710;6.502;2023-03-23T02:48:36;11.50;99.90
52555;DHT22;38455;52.710;6.502;2023-03-23T02:51:04;11.50;99.90
52555;DHT22;38455;52.710;6.502;2023-03-23T02:53:30;11.50;99.90
52555;DHT22;38455;52.710;6.502;2023-03-23T02:55:59;11.60;99.90
52555;DHT22;38455;52.710;6.502;2023-03-23T02:58:28;11.60;99.90
52555;DHT22;38455;52.710;6.502;2023-03-23T03:00:55;11.60;99.90
52555;DHT22;38455;52.710;6.502;2023-03-23T03:03:24;11.60;99.90
52555;DHT22;38455;52.710;6.502;2023-03-23T03:06:19;11.60;99.90
52555;DHT22;38455;52.710;6.502;2023-03-23T03:11:37;11.60;99.90
52555;DHT22;38455;52.710;6.502;2023-03-23T03:14:08;11.60;99.90
52555;DHT22;38455;52.710;6.502;2023-03-23T03:16:41;11.60;99.90
52555;DHT22;38455;52.710;6.502;2023-03-23T03:22:17;11.60;99.90
52555;DHT22;38455;52.710;6.502;2023-03-23T03:24:47;11.50;99.90
52555;DHT22;38455;52.710;6.502;2023-03-23T03:27:16;11.60;99.90
52555;DHT22;38455;52.710;6.502;2023-03-23T03:29:46;11.60;99.90
52555;DHT22;38455;52.710;6.502;2023-03-23T03:32:18;11.70;99.90
52555;DHT22;38455;52.710;6.502;2023-03-23T03:34:45;11.70;99.90
52555;DHT22;38455;52.710;6.502;2023-03-23T03:37:12;11.70;99.90
52555;DHT22;38455;52.710;6.502;2023-03-23T03:39:38;11.80;99.90
52555;DHT22;38455;52.710;6.502;2023-03-23T03:42:05;11.80;99.90
52555;DHT22;38455;52.710;6.502;2023-03-23T03:44:32;11.80;99.90
52555;DHT22;38455;52.710;6.502;2023-03-23T03:46:58;11.70;99.90
52555;DHT22;38455;52.710;6.502;2023-03-23T03:49:23;11.70;99.90
52555;DHT22;38455;52.710;6.502;2023-03-23T03:51:49;11.70;99.90
52555;DHT22;38455;52.710;6.502;2023-03-23T03:54:15;11.70;99.90
52555;DHT22;38455;52.710;6.502;2023-03-23T03:56:41;11.70;99.90
52555;DHT22;38455;52.710;6.502;2023-03-23T03:59:08;11.70;99.90
52555;DHT22;38455;52.710;6.502;2023-03-23T04:01:36;11.70;99.90
52555;DHT22;38455;52.710;6.502;2023-03-23T04:04:02;11.70;99.90
52555;DHT22;38455;52.710;6.502;2023-03-23T04:06:28;11.70;99.90
52555;DHT22;38455;52.710;6.502;2023-03-23T04:08:55;11.80;99.90
52555;DHT22;38455;52.710;6.502;2023-03-23T04:11:21;11.70;99.90
52555;DHT22;38455;52.710;6.502;2023-03-23T04:13:47;11.70;99.90
52555;DHT22;38455;52.710;6.502;2023-03-23T04:16:12;11.80;99.90
52555;DHT22;38455;52.710;6.502;2023-03-23T04:18:38;11.80;99.90
52555;DHT22;38455;52.710;6.502;2023-03-23T04:21:05;11.80;99.90
52555;DHT22;38455;52.710;6.502;2023-03-23T04:23:33;11.80;99.90
52555;DHT22;38455;52.710;6.502;2023-03-23T04:26:01;11.90;99.90
52555;DHT22;38455;52.710;6.502;2023-03-23T04:28:29;11.80;99.90
52555;DHT22;38455;52.710;6.502;2023-03-23T04:30:59;11.90;99.90
52555;DHT22;38455;52.710;6.502;2023-03-23T04:33:27;11.80;99.90
52555;DHT22;38455;52.710;6.502;2023-03-23T04:35:54;11.80;99.90
52555;DHT22;38455;52.710;6.502;2023-03-23T04:38:22;11.80;99.90
52555;DHT22;38455;52.710;6.502;2023-03-23T04:40:49;11.80;99.90
52555;DHT22;38455;52.710;6.502;2023-03-23T04:43:19;11.90;99.90
52555;DHT22;38455;52.710;6.502;2023-03-23T04:45:47;11.90;99.90
52555;DHT22;38455;52.710;6.502;2023-03-23T04:48:17;11.90;99.90
52555;DHT22;38455;52.710;6.502;2023-03-23T04:50:44;11.80;99.90
52555;DHT22;38455;52.710;6.502;2023-03-23T04:53:09;11.90;99.90
52555;DHT22;38455;52.710;6.502;2023-03-23T04:55:36;11.90;99.90
52555;DHT22;38455;52.710;6.502;2023-03-23T04:58:06;11.90;99.90
52555;DHT22;38455;52.710;6.502;2023-03-23T05:00:33;11.90;99.90
52555;DHT22;38455;52.710;6.502;2023-03-23T05:02:59;11.90;99.90
52555;DHT22;38455;52.710;6.502;2023-03-23T05:05:27;11.90;99.90
52555;DHT22;38455;52.710;6.502;2023-03-23T05:07:55;11.80;99.90
52555;DHT22;38455;52.710;6.502;2023-03-23T05:10:21;11.80;99.90
52555;DHT22;38455;52.710;6.502;2023-03-23T05:12:46;11.70;99.90
52555;DHT22;38455;52.710;6.502;2023-03-23T05:15:14;11.70;99.90
52555;DHT22;38455;52.710;6.502;2023-03-23T05:17:41;11.60;99.90
52555;DHT22;38455;52.710;6.502;2023-03-23T05:20:11;11.50;99.90
52555;DHT22;38455;52.710;6.502;2023-03-23T05:22:38;11.50;99.90
52555;DHT22;38455;52.710;6.502;2023-03-23T05:25:05;11.40;99.90
52555;DHT22;38455;52.710;6.502;2023-03-23T05:27:35;11.40;99.90
52555;DHT22;38455;52.710;6.502;2023-03-23T05:30:00;11.40;99.90
52555;DHT22;38455;52.710;6.502;2023-03-23T05:32:27;11.40;99.90
52555;DHT22;38455;52.710;6.502;2023-03-23T05:34:55;11.40;99.90
52555;DHT22;38455;52.710;6.502;2023-03-23T05:37:22;11.40;99.90
52555;DHT22;38455;52.710;6.502;2023-03-23T05:39:47;11.40;99.90
52555;DHT22;38455;52.710;6.502;2023-03-23T05:42:13;11.40;99.90
52555;DHT22;38455;52.710;6.502;2023-03-23T05:44:39;11.40;99.90
52555;DHT22;38455;52.710;6.502;2023-03-23T05:47:04;11.40;99.90
52555;DHT22;38455;52.710;6.502;2023-03-23T05:49:30;11.40;99.90
52555;DHT22;38455;52.710;6.502;2023-03-23T05:51:56;11.30;99.90
52555;DHT22;38455;52.710;6.502;2023-03-23T05:54:21;11.30;99.90
52555;DHT22;38455;52.710;6.502;2023-03-23T05:56:48;11.30;99.90
52555;DHT22;38455;52.710;6.502;2023-03-23T05:59:14;11.30;99.90
52555;DHT22;38455;52.710;6.502;2023-03-23T06:01:40;11.20;99.90
52555;DHT22;38455;52.710;6.502;2023-03-23T06:04:06;11.20;99.90
52555;DHT22;38455;52.710;6.502;2023-03-23T06:06:32;11.20;99.90
52555;DHT22;38455;52.710;6.502;2023-03-23T06:08:58;11.10;99.90
52555;DHT22;38455;52.710;6.502;2023-03-23T06:11:24;11.10;99.90
52555;DHT22;38455;52.710;6.502;2023-03-23T06:13:51;11.10;99.90
52555;DHT22;38455;52.710;6.502;2023-03-23T06:16:18;11.10;99.90
52555;DHT22;38455;52.710;6.502;2023-03-23T06:18:44;11.20;99.90
52555;DHT22;38455;52.710;6.502;2023-03-23T06:21:11;11.20;99.90
52555;DHT22;38455;52.710;6.502;2023-03-23T06:23:38;11.20;99.90
52555;DHT22;38455;52.710;6.502;2023-03-23T06:26:06;11.30;99.90
52555;DHT22;38455;52.710;6.502;2023-03-23T06:28:33;11.30;99.90
52555;DHT22;38455;52.710;6.502;2023-03-23T06:31:03;11.30;99.90
52555;DHT22;38455;52.710;6.502;2023-03-23T06:33:36;11.30;99.90
52555;DHT22;38455;52.710;6.502;2023-03-23T06:36:03;11.30;99.90
52555;DHT22;38455;52.710;6.502;2023-03-23T06:38:30;11.30;99.90
52555;DHT22;38455;52.710;6.502;2023-03-23T06:40:56;11.30;99.90
52555;DHT22;38455;52.710;6.502;2023-03-23T06:43:23;11.30;99.90
52555;DHT22;38455;52.710;6.502;2023-03-23T06:45:49;11.30;99.90
52555;DHT22;38455;52.710;6.502;2023-03-23T06:48:16;11.40;99.90
52555;DHT22;38455;52.710;6.502;2023-03-23T06:50:45;11.30;99.90
52555;DHT22;38455;52.710;6.502;2023-03-23T06:53:11;11.40;99.90
52555;DHT22;38455;52.710;6.502;2023-03-23T06:55:38;11.30;99.90
52555;DHT22;38455;52.710;6.502;2023-03-23T06:58:05;11.30;99.90
52555;DHT22;38455;52.710;6.502;2023-03-23T07:00:32;11.40;99.90
52555;DHT22;38455;52.710;6.502;2023-03-23T07:02:58;11.40;99.90
52555;DHT22;38455;52.710;6.502;2023-03-23T07:05:24;11.40;99.90
52555;DHT22;38455;52.710;6.502;2023-03-23T07:07:50;11.40;99.90
52555;DHT22;38455;52.710;6.502;2023-03-23T07:10:16;11.50;99.90
52555;DHT22;38455;52.710;6.502;2023-03-23T07:12:41;11.50;99.90
52555;DHT22;38455;52.710;6.502;2023-03-23T07:15:07;11.50;99.90
52555;DHT22;38455;52.710;6.502;2023-03-23T07:17:36;11.60;99.90
52555;DHT22;38455;52.710;6.502;2023-03-23T07:20:03;11.50;99.90
52555;DHT22;38455;52.710;6.502;2023-03-23T07:22:30;11.60;99.90
52555;DHT22;38455;52.710;6.502;2023-03-23T07:24:55;11.60;99.90
52555;DHT22;38455;52.710;6.502;2023-03-23T07:27:21;11.60;99.90
52555;DHT22;38455;52.710;6.502;2023-03-23T07:29:47;11.70;99.90
52555;DHT22;38455;52.710;6.502;2023-03-23T07:32:13;11.70;99.90
52555;DHT22;38455;52.710;6.502;2023-03-23T07:34:39;11.80;99.90
52555;DHT22;38455;52.710;6.502;2023-03-23T07:37:05;12.00;99.90
52555;DHT22;38455;52.710;6.502;2023-03-23T07:39:31;12.10;99.90
52555;DHT22;38455;52.710;6.502;2023-03-23T07:41:57;12.10;99.90
52555;DHT22;38455;52.710;6.502;2023-03-23T07:44:23;12.10;99.90
52555;DHT22;38455;52.710;6.502;2023-03-23T07:46:49;12.10;99.90
52555;DHT22;38455;52.710;6.502;2023-03-23T07:49:15;12.10;99.90
52555;DHT22;38455;52.710;6.502;2023-03-23T07:51:40;12.10;99.90
52555;DHT22;38455;52.710;6.502;2023-03-23T07:54:06;12.20;99.90
52555;DHT22;38455;52.710;6.502;2023-03-23T07:56:36;12.30;99.90
52555;DHT22;38455;52.710;6.502;2023-03-23T07:59:03;12.30;99.90
52555;DHT22;38455;52.710;6.502;2023-03-23T08:01:30;12.30;99.90
52555;DHT22;38455;52.710;6.502;2023-03-23T08:03:56;12.30;99.90
52555;DHT22;38455;52.710;6.502;2023-03-23T08:06:23;12.30;99.90
52555;DHT22;38455;52.710;6.502;2023-03-23T08:08:49;12.20;99.90
52555;DHT22;38455;52.710;6.502;2023-03-23T08:11:16;12.20;99.90
52555;DHT22;38455;52.710;6.502;2023-03-23T08:13:42;12.20;99.90
52555;DHT22;38455;52.710;6.502;2023-03-23T08:16:09;12.10;99.90
52555;DHT22;38455;52.710;6.502;2023-03-23T08:18:36;12.20;99.90
52555;DHT22;38455;52.710;6.502;2023-03-23T08:21:03;12.20;99.90
52555;DHT22;38455;52.710;6.502;2023-03-23T08:23:31;12.20;99.90
52555;DHT22;38455;52.710;6.502;2023-03-23T08:25:58;12.20;99.90
52555;DHT22;38455;52.710;6.502;2023-03-23T08:28:24;12.20;99.90
52555;DHT22;38455;52.710;6.502;2023-03-23T08:30:50;12.20;99.90
52555;DHT22;38455;52.710;6.502;2023-03-23T08:33:16;12.20;99.90
52555;DHT22;38455;52.710;6.502;2023-03-23T08:35:42;12.10;99.90
52555;DHT22;38455;52.710;6.502;2023-03-23T08:38:10;12.10;99.90
52555;DHT22;38455;52.710;6.502;2023-03-23T08:40:37;12.10;99.90
52555;DHT22;38455;52.710;6.502;2023-03-23T08:43:02;12.10;99.90
52555;DHT22;38455;52.710;6.502;2023-03-23T08:45:28;12.10;99.90
52555;DHT22;38455;52.710;6.502;2023-03-23T08:47:54;12.20;99.90
52555;DHT22;38455;52.710;6.502;2023-03-23T08:50:24;12.30;99.90
52555;DHT22;38455;52.710;6.502;2023-03-23T08:52:51;12.40;99.90
52555;DHT22;38455;52.710;6.502;2023-03-23T08:55:18;12.50;99.90
52555;DHT22;38455;52.710;6.502;2023-03-23T08:57:44;12.50;99.90
52555;DHT22;38455;52.710;6.502;2023-03-23T09:00:13;12.60;99.90
52555;DHT22;38455;52.710;6.502;2023-03-23T09:02:44;12.70;99.90
52555;DHT22;38455;52.710;6.502;2023-03-23T09:05:11;12.90;99.90
52555;DHT22;38455;52.710;6.502;2023-03-23T09:07:38;13.00;99.90
52555;DHT22;38455;52.710;6.502;2023-03-23T09:10:05;13.20;99.90
52555;DHT22;38455;52.710;6.502;2023-03-23T09:12:30;13.30;99.90
52555;DHT22;38455;52.710;6.502;2023-03-23T09:14:56;13.40;99.90
52555;DHT22;38455;52.710;6.502;2023-03-23T09:17:22;13.30;99.90
52555;DHT22;38455;52.710;6.502;2023-03-23T09:19:48;13.10;99.90
52555;DHT22;38455;52.710;6.502;2023-03-23T09:22:13;13.00;99.90
52555;DHT22;38455;52.710;6.502;2023-03-23T09:24:40;12.90;99.90
52555;DHT22;38455;52.710;6.502;2023-03-23T09:27:06;12.90;99.90
52555;DHT22;38455;52.710;6.502;2023-03-23T09:29:32;12.90;99.90
52555;DHT22;38455;52.710;6.502;2023-03-23T09:31:57;13.20;99.90
52555;DHT22;38455;52.710;6.502;2023-03-23T09:34:23;13.60;99.90
52555;DHT22;38455;52.710;6.502;2023-03-23T09:36:49;14.00;99.90
52555;DHT22;38455;52.710;6.502;2023-03-23T09:39:15;15.10;99.90
52555;DHT22;38455;52.710;6.502;2023-03-23T09:49:58;15.80;99.90
52555;DHT22;38455;52.710;6.502;2023-03-23T09:55:18;15.40;99.90
52555;DHT22;38455;52.710;6.502;2023-03-23T09:57:59;15.90;99.90
52555;DHT22;38455;52.710;6.502;2023-03-23T10:00:32;16.70;99.90
52555;DHT22;38455;52.710;6.502;2023-03-23T10:03:05;16.80;99.90
52555;DHT22;38455;52.710;6.502;2023-03-23T10:05:52;17.00;99.90
52555;DHT22;38455;52.710;6.502;2023-03-23T10:08:21;17.50;99.90
52555;DHT22;38455;52.710;6.502;2023-03-23T10:16:18;17.40;99.90
52555;DHT22;38455;52.710;6.502;2023-03-23T10:21:34;17.40;99.90
52555;DHT22;38455;52.710;6.502;2023-03-23T10:24:04;17.60;99.90
52555;DHT22;38455;52.710;6.502;2023-03-23T10:27:01;17.80;99.90
52555;DHT22;38455;52.710;6.502;2023-03-23T10:29:46;18.20;99.90
52555;DHT22;38455;52.710;6.502;2023-03-23T10:32:16;17.90;99.90
52555;DHT22;38455;52.710;6.502;2023-03-23T10:37:25;18.60;99.90
52555;DHT22;38455;52.710;6.502;2023-03-23T10:39:54;19.20;99.90
52555;DHT22;38455;52.710;6.502;2023-03-23T10:42:28;19.30;99.90
52555;DHT22;38455;52.710;6.502;2023-03-23T10:44:56;19.40;99.90
52555;DHT22;38455;52.710;6.502;2023-03-23T10:47:23;20.20;99.90
52555;DHT22;38455;52.710;6.502;2023-03-23T10:50:05;20.00;99.90
52555;DHT22;38455;52.710;6.502;2023-03-23T10:52:42;20.60;99.10
52555;DHT22;38455;52.710;6.502;2023-03-23T10:55:17;20.70;97.60
52555;DHT22;38455;52.710;6.502;2023-03-23T10:57:58;20.40;97.90
52555;DHT22;38455;52.710;6.502;2023-03-23T11:00:25;20.50;98.20
52555;DHT22;38455;52.710;6.502;2023-03-23T11:05:56;20.50;96.30
52555;DHT22;38455;52.710;6.502;2023-03-23T11:08:28;20.40;97.00
52555;DHT22;38455;52.710;6.502;2023-03-23T11:11:47;20.00;97.10
52555;DHT22;38455;52.710;6.502;2023-03-23T11:13:49;19.00;99.10
52555;DHT22;38455;52.710;6.502;2023-03-23T11:16:44;18.60;99.90
52555;DHT22;38455;52.710;6.502;2023-03-23T11:19:16;18.20;99.90
52555;DHT22;38455;52.710;6.502;2023-03-23T11:21:53;19.10;99.90
52555;DHT22;38455;52.710;6.502;2023-03-23T11:24:22;20.20;99.90
52555;DHT22;38455;52.710;6.502;2023-03-23T11:26:49;20.50;97.80
52555;DHT22;38455;52.710;6.502;2023-03-23T11:29:18;20.60;95.30
52555;DHT22;38455;52.710;6.502;2023-03-23T11:31:53;20.80;93.30
52555;DHT22;38455;52.710;6.502;2023-03-23T11:34:20;21.00;92.80
52555;DHT22;38455;52.710;6.502;2023-03-23T11:42:49;19.20;94.00
52555;DHT22;38455;52.710;6.502;2023-03-23T11:45:30;19.20;94.60
52555;DHT22;38455;52.710;6.502;2023-03-23T11:48:11;19.90;95.20
52555;DHT22;38455;52.710;6.502;2023-03-23T11:51:20;20.70;94.00
52555;DHT22;38455;52.710;6.502;2023-03-23T11:56:41;20.40;90.60
52555;DHT22;38455;52.710;6.502;2023-03-23T11:59:32;20.70;91.60
52555;DHT22;38455;52.710;6.502;2023-03-23T12:02:19;21.10;90.90
52555;DHT22;38455;52.710;6.502;2023-03-23T12:07:35;20.90;91.40
52555;DHT22;38455;52.710;6.502;2023-03-23T12:18:51;20.40;92.10
52555;DHT22;38455;52.710;6.502;2023-03-23T12:22:05;20.80;90.40
52555;DHT22;38455;52.710;6.502;2023-03-23T12:24:44;20.70;87.90
52555;DHT22;38455;52.710;6.502;2023-03-23T12:28:01;20.10;88.50
52555;DHT22;38455;52.710;6.502;2023-03-23T12:30:40;20.50;90.40
52555;DHT22;38455;52.710;6.502;2023-03-23T12:44:14;19.60;90.40
52555;DHT22;38455;52.710;6.502;2023-03-23T12:52:15;19.40;89.00
52555;DHT22;38455;52.710;6.502;2023-03-23T12:54:58;19.20;90.90
52555;DHT22;38455;52.710;6.502;2023-03-23T12:57:39;19.00;91.20
52555;DHT22;38455;52.710;6.502;2023-03-23T13:00:25;18.90;91.50
52555;DHT22;38455;52.710;6.502;2023-03-23T13:03:04;18.90;92.20
52555;DHT22;38455;52.710;6.502;2023-03-23T13:05:42;19.00;92.50
52555;DHT22;38455;52.710;6.502;2023-03-23T13:08:19;19.00;91.60
52555;DHT22;38455;52.710;6.502;2023-03-23T13:10:51;18.80;91.10
52555;DHT22;38455;52.710;6.502;2023-03-23T13:13:20;18.40;91.50
52555;DHT22;38455;52.710;6.502;2023-03-23T13:15:55;18.10;92.40
52555;DHT22;38455;52.710;6.502;2023-03-23T13:21:16;18.10;94.40
52555;DHT22;38455;52.710;6.502;2023-03-23T13:23:48;18.00;92.50
52555;DHT22;38455;52.710;6.502;2023-03-23T13:26:20;18.00;91.50
52555;DHT22;38455;52.710;6.502;2023-03-23T13:29:01;18.10;92.10
52555;DHT22;38455;52.710;6.502;2023-03-23T13:31:38;17.90;92.50
52555;DHT22;38455;52.710;6.502;2023-03-23T13:34:28;18.10;92.70
52555;DHT22;38455;52.710;6.502;2023-03-23T13:37:00;18.60;92.10
52555;DHT22;38455;52.710;6.502;2023-03-23T13:39:30;19.10;92.10
52555;DHT22;38455;52.710;6.502;2023-03-23T13:42:19;18.90;91.20
52555;DHT22;38455;52.710;6.502;2023-03-23T13:49:59;19.20;90.90
52555;DHT22;38455;52.710;6.502;2023-03-23T13:58:09;19.10;92.20
52555;DHT22;38455;52.710;6.502;2023-03-23T14:00:48;18.70;93.20
52555;DHT22;38455;52.710;6.502;2023-03-23T14:03:35;17.90;93.30
52555;DHT22;38455;52.710;6.502;2023-03-23T14:06:05;17.40;94.00
52555;DHT22;38455;52.710;6.502;2023-03-23T14:10:59;16.70;96.00
52555;DHT22;38455;52.710;6.502;2023-03-23T14:13:30;16.80;96.80
52555;DHT22;38455;52.710;6.502;2023-03-23T14:16:03;17.60;96.80
52555;DHT22;38455;52.710;6.502;2023-03-23T14:18:41;17.80;94.40
52555;DHT22;38455;52.710;6.502;2023-03-23T14:21:16;17.50;95.30
52555;DHT22;38455;52.710;6.502;2023-03-23T14:23:42;17.00;97.20
52555;DHT22;38455;52.710;6.502;2023-03-23T14:26:15;17.10;98.00
52555;DHT22;38455;52.710;6.502;2023-03-23T14:28:43;16.80;99.40
52555;DHT22;38455;52.710;6.502;2023-03-23T14:31:27;16.60;99.90
52555;DHT22;38455;52.710;6.502;2023-03-23T14:33:55;16.50;99.90
52555;DHT22;38455;52.710;6.502;2023-03-23T14:36:27;16.10;99.90
52555;DHT22;38455;52.710;6.502;2023-03-23T14:41:38;15.70;99.90
52555;DHT22;38455;52.710;6.502;2023-03-23T14:44:06;15.60;99.90
52555;DHT22;38455;52.710;6.502;2023-03-23T14:46:33;15.70;99.90
52555;DHT22;38455;52.710;6.502;2023-03-23T14:49:04;15.70;99.90
52555;DHT22;38455;52.710;6.502;2023-03-23T14:51:30;15.70;99.90
52555;DHT22;38455;52.710;6.502;2023-03-23T14:53:58;15.70;99.90
52555;DHT22;38455;52.710;6.502;2023-03-23T14:56:33;15.80;99.90
52555;DHT22;38455;52.710;6.502;2023-03-23T14:59:04;15.90;99.90
52555;DHT22;38455;52.710;6.502;2023-03-23T15:01:32;15.90;99.90
52555;DHT22;38455;52.710;6.502;2023-03-23T15:03:59;16.00;99.90
52555;DHT22;38455;52.710;6.502;2023-03-23T15:06:28;16.10;99.90
52555;DHT22;38455;52.710;6.502;2023-03-23T15:08:59;16.00;99.90
52555;DHT22;38455;52.710;6.502;2023-03-23T15:11:34;16.00;99.90
52555;DHT22;38455;52.710;6.502;2023-03-23T15:14:18;16.00;99.90
52555;DHT22;38455;52.710;6.502;2023-03-23T15:16:50;16.00;99.90
52555;DHT22;38455;52.710;6.502;2023-03-23T15:19:27;15.80;99.90
52555;DHT22;38455;52.710;6.502;2023-03-23T15:22:46;15.80;99.90
52555;DHT22;38455;52.710;6.502;2023-03-23T15:25:11;15.90;99.90
52555;DHT22;38455;52.710;6.502;2023-03-23T15:27:43;15.90;99.90
52555;DHT22;38455;52.710;6.502;2023-03-23T15:32:53;15.80;99.90
52555;DHT22;38455;52.710;6.502;2023-03-23T15:35:23;15.70;99.90
52555;DHT22;38455;52.710;6.502;2023-03-23T15:38:04;15.70;99.90
52555;DHT22;38455;52.710;6.502;2023-03-23T15:40:37;15.60;99.90
52555;DHT22;38455;52.710;6.502;2023-03-23T15:45:55;15.50;99.90
52555;DHT22;38455;52.710;6.502;2023-03-23T15:48:22;15.50;99.90
52555;DHT22;38455;52.710;6.502;2023-03-23T15:50:49;15.50;99.90
52555;DHT22;38455;52.710;6.502;2023-03-23T15:53:36;15.50;99.90
52555;DHT22;38455;52.710;6.502;2023-03-23T15:56:05;15.70;99.90
52555;DHT22;38455;52.710;6.502;2023-03-23T15:58:32;15.70;99.90
52555;DHT22;38455;52.710;6.502;2023-03-23T16:01:00;15.70;99.90
52555;DHT22;38455;52.710;6.502;2023-03-23T16:03:40;15.70;99.90
52555;DHT22;38455;52.710;6.502;2023-03-23T16:06:11;15.70;99.90
52555;DHT22;38455;52.710;6.502;2023-03-23T16:08:37;15.50;99.90
52555;DHT22;38455;52.710;6.502;2023-03-23T16:11:06;15.20;99.90
52555;DHT22;38455;52.710;6.502;2023-03-23T16:13:32;14.90;99.90
52555;DHT22;38455;52.710;6.502;2023-03-23T16:15:58;14.60;99.90
52555;DHT22;38455;52.710;6.502;2023-03-23T16:18:23;14.50;99.90
52555;DHT22;38455;52.710;6.502;2023-03-23T16:20:49;14.30;99.90
52555;DHT22;38455;52.710;6.502;2023-03-23T16:23:16;14.30;99.90
52555;DHT22;38455;52.710;6.502;2023-03-23T16:25:42;14.30;99.90
52555;DHT22;38455;52.710;6.502;2023-03-23T16:28:14;14.30;99.90
52555;DHT22;38455;52.710;6.502;2023-03-23T16:30:41;14.30;99.90
52555;DHT22;38455;52.710;6.502;2023-03-23T16:33:07;14.20;99.90
52555;DHT22;38455;52.710;6.502;2023-03-23T16:35:33;14.20;99.90
52555;DHT22;38455;52.710;6.502;2023-03-23T16:38:00;14.20;99.90
52555;DHT22;38455;52.710;6.502;2023-03-23T16:40:26;14.10;99.90
52555;DHT22;38455;52.710;6.502;2023-03-23T16:42:52;14.20;99.90
52555;DHT22;38455;52.710;6.502;2023-03-23T16:45:18;14.10;99.90
52555;DHT22;38455;52.710;6.502;2023-03-23T16:47:45;14.10;99.90
52555;DHT22;38455;52.710;6.502;2023-03-23T16:50:13;13.90;99.90
52555;DHT22;38455;52.710;6.502;2023-03-23T16:52:41;13.80;99.90
52555;DHT22;38455;52.710;6.502;2023-03-23T16:55:08;13.70;99.90
52555;DHT22;38455;52.710;6.502;2023-03-23T16:57:34;13.60;99.90
52555;DHT22;38455;52.710;6.502;2023-03-23T17:00:09;13.50;99.90
52555;DHT22;38455;52.710;6.502;2023-03-23T17:02:36;13.40;99.90
52555;DHT22;38455;52.710;6.502;2023-03-23T17:05:04;13.30;99.90
52555;DHT22;38455;52.710;6.502;2023-03-23T17:07:30;13.30;99.90
52555;DHT22;38455;52.710;6.502;2023-03-23T17:09:56;13.30;99.90
52555;DHT22;38455;52.710;6.502;2023-03-23T17:12:21;13.30;99.90
52555;DHT22;38455;52.710;6.502;2023-03-23T17:14:47;13.30;99.90
52555;DHT22;38455;52.710;6.502;2023-03-23T17:17:13;13.20;99.90
52555;DHT22;38455;52.710;6.502;2023-03-23T17:19:38;13.20;99.90
52555;DHT22;38455;52.710;6.502;2023-03-23T17:22:04;13.20;99.90
52555;DHT22;38455;52.710;6.502;2023-03-23T17:24:30;13.20;99.90
52555;DHT22;38455;52.710;6.502;2023-03-23T17:26:56;13.20;99.90
52555;DHT22;38455;52.710;6.502;2023-03-23T17:29:36;13.20;99.90
52555;DHT22;38455;52.710;6.502;2023-03-23T17:32:01;13.10;99.90
52555;DHT22;38455;52.710;6.502;2023-03-23T17:34:27;13.10;99.90
52555;DHT22;38455;52.710;6.502;2023-03-23T17:36:53;13.10;99.90
52555;DHT22;38455;52.710;6.502;2023-03-23T17:39:18;13.00;99.90